sensor_id;sensor_type;location;lat;lon;timestamp;pressure;altitude;pressure_sealevel;temperature;humidity
18201;BME280;9226;47.858;9.594;2023-07-31T00:01:26;95359.91;;;17.43;62.22
18201;BME280;9226;47.858;9.594;2023-07-31T00:03:51;95352.88;;;17.42;62.13
18201;BME280;9226;47.858;9.594;2023-07-31T00:06:17;95356.91;;;17.38;61.88
18201;BME280;9226;47.858;9.594;2023-07-31T00:08:42;95361.59;;;17.36;62.10
18201;BME280;9226;47.858;9.594;2023-07-31T00:11:07;95350.53;;;17.31;62.24
18201;BME280;9226;47.858;9.594;2023-07-31T00:13:33;95354.75;;;17.33;62.05
18201;BME280;9226;47.858;9.594;2023-07-31T00:15:59;95350.22;;;17.34;62.13
18201;BME280;9226;47.858;9.594;2023-07-31T00:18:24;95345.84;;;17.33;62.05
18201;BME280;9226;47.858;9.594;2023-07-31T00:20:50;95344.19;;;17.32;62.09
18201;BME280;9226;47.858;9.594;2023-07-31T00:23:15;95345.19;;;17.31;62.00
18201;BME280;9226;47.858;9.594;2023-07-31T00:25:41;95351.34;;;16.82;65.85
18201;BME280;9226;47.858;9.594;2023-07-31T00:28:06;95347.34;;;17.03;63.45
18201;BME280;9226;47.858;9.594;2023-07-31T00:30:32;95340.34;;;17.02;63.84
18201;BME280;9226;47.858;9.594;2023-07-31T00:32:57;95338.00;;;17.07;63.43
18201;BME280;9226;47.858;9.594;2023-07-31T00:35:23;95341.16;;;17.10;63.34
18201;BME280;9226;47.858;9.594;2023-07-31T00:37:48;95336.47;;;17.12;63.47
18201;BME280;9226;47.858;9.594;2023-07-31T00:40:13;95349.22;;;17.10;63.24
18201;BME280;9226;47.858;9.594;2023-07-31T00:42:39;95348.53;;;17.16;62.74
18201;BME280;9226;47.858;9.594;2023-07-31T00:45:05;95343.34;;;17.15;62.97
18201;BME280;9226;47.858;9.594;2023-07-31T00:47:30;95337.31;;;17.13;62.83
18201;BME280;9226;47.858;9.594;2023-07-31T00:49:56;95342.34;;;17.16;63.17
18201;BME280;9226;47.858;9.594;2023-07-31T00:52:22;95339.84;;;17.14;63.08
18201;BME280;9226;47.858;9.594;2023-07-31T00:54:48;95347.19;;;16.96;64.54
18201;BME280;9226;47.858;9.594;2023-07-31T00:57:14;95347.34;;;16.94;64.40
18201;BME280;9226;47.858;9.594;2023-07-31T00:59:40;95351.19;;;16.92;64.74
18201;BME280;9226;47.858;9.594;2023-07-31T01:02:05;95346.38;;;16.95;64.38
18201;BME280;9226;47.858;9.594;2023-07-31T01:04:31;95348.22;;;17.03;63.50
18201;BME280;9226;47.858;9.594;2023-07-31T01:07:14;95353.22;;;16.98;64.73
18201;BME280;9226;47.858;9.594;2023-07-31T01:09:57;95340.16;;;16.95;64.01
18201;BME280;9226;47.858;9.594;2023-07-31T01:12:27;95342.66;;;16.96;63.59
18201;BME280;9226;47.858;9.594;2023-07-31T01:15:10;95343.66;;;16.87;65.45
18201;BME280;9226;47.858;9.594;2023-07-31T01:17:40;95340.47;;;16.92;64.27
18201;BME280;9226;47.858;9.594;2023-07-31T01:20:16;95338.81;;;16.91;64.47
18201;BME280;9226;47.858;9.594;2023-07-31T01:22:58;95337.13;;;16.90;64.69
18201;BME280;9226;47.858;9.594;2023-07-31T01:31:09;95325.91;;;16.86;65.40
18201;BME280;9226;47.858;9.594;2023-07-31T01:33:36;95318.34;;;16.73;66.26
18201;BME280;9226;47.858;9.594;2023-07-31T01:36:02;95320.63;;;16.43;67.99
18201;BME280;9226;47.858;9.594;2023-07-31T01:38:28;95321.47;;;16.52;67.15
18201;BME280;9226;47.858;9.594;2023-07-31T01:40:54;95314.09;;;16.46;67.42
18201;BME280;9226;47.858;9.594;2023-07-31T01:43:19;95317.16;;;16.51;66.67
18201;BME280;9226;47.858;9.594;2023-07-31T01:45:45;95315.97;;;16.54;66.15
18201;BME280;9226;47.858;9.594;2023-07-31T01:48:10;95314.47;;;16.51;66.76
18201;BME280;9226;47.858;9.594;2023-07-31T01:50:36;95314.63;;;16.58;66.46
18201;BME280;9226;47.858;9.594;2023-07-31T01:53:01;95311.13;;;16.57;66.42
18201;BME280;9226;47.858;9.594;2023-07-31T01:55:26;95314.63;;;16.50;66.55
18201;BME280;9226;47.858;9.594;2023-07-31T01:57:52;95312.63;;;16.52;66.93
18201;BME280;9226;47.858;9.594;2023-07-31T02:00:18;95316.66;;;16.56;66.72
18201;BME280;9226;47.858;9.594;2023-07-31T02:02:43;95312.78;;;16.50;67.31
18201;BME280;9226;47.858;9.594;2023-07-31T02:05:08;95301.91;;;16.52;67.07
18201;BME280;9226;47.858;9.594;2023-07-31T02:07:34;95296.53;;;16.52;67.18
18201;BME280;9226;47.858;9.594;2023-07-31T02:09:59;95294.53;;;16.54;67.16
18201;BME280;9226;47.858;9.594;2023-07-31T02:12:24;95288.03;;;16.56;67.16
18201;BME280;9226;47.858;9.594;2023-07-31T02:14:50;95286.16;;;16.57;67.07
18201;BME280;9226;47.858;9.594;2023-07-31T02:17:15;95274.13;;;16.61;66.77
18201;BME280;9226;47.858;9.594;2023-07-31T02:19:41;95275.81;;;16.62;66.84
18201;BME280;9226;47.858;9.594;2023-07-31T02:22:06;95275.81;;;16.62;66.89
18201;BME280;9226;47.858;9.594;2023-07-31T02:24:31;95277.81;;;16.68;66.98
18201;BME280;9226;47.858;9.594;2023-07-31T02:26:57;95275.31;;;16.75;66.50
18201;BME280;9226;47.858;9.594;2023-07-31T02:29:22;95277.84;;;16.76;66.80
18201;BME280;9226;47.858;9.594;2023-07-31T02:31:48;95278.16;;;16.81;66.67
18201;BME280;9226;47.858;9.594;2023-07-31T02:34:13;95276.84;;;16.86;66.76
18201;BME280;9226;47.858;9.594;2023-07-31T02:36:39;95282.88;;;16.88;66.36
18201;BME280;9226;47.858;9.594;2023-07-31T02:39:04;95279.88;;;16.91;66.30
18201;BME280;9226;47.858;9.594;2023-07-31T02:41:30;95274.69;;;16.89;66.55
18201;BME280;9226;47.858;9.594;2023-07-31T02:43:55;95274.19;;;16.94;66.34
18201;BME280;9226;47.858;9.594;2023-07-31T02:46:20;95264.78;;;16.98;66.49
18201;BME280;9226;47.858;9.594;2023-07-31T02:48:54;95267.78;;;16.95;66.57
18201;BME280;9226;47.858;9.594;2023-07-31T02:51:19;95268.66;;;16.95;66.83
18201;BME280;9226;47.858;9.594;2023-07-31T02:53:47;95270.66;;;17.02;66.52
18201;BME280;9226;47.858;9.594;2023-07-31T02:56:13;95260.09;;;17.08;66.43
18201;BME280;9226;47.858;9.594;2023-07-31T02:58:38;95259.59;;;16.96;66.81
18201;BME280;9226;47.858;9.594;2023-07-31T03:01:03;95271.84;;;16.91;66.81
18201;BME280;9226;47.858;9.594;2023-07-31T03:03:29;95268.09;;;16.83;66.97
18201;BME280;9226;47.858;9.594;2023-07-31T03:05:54;95265.44;;;16.75;67.57
18201;BME280;9226;47.858;9.594;2023-07-31T03:08:20;95271.78;;;16.74;67.14
18201;BME280;9226;47.858;9.594;2023-07-31T03:10:45;95280.50;;;16.76;67.14
18201;BME280;9226;47.858;9.594;2023-07-31T03:13:11;95283.53;;;16.73;67.18
18201;BME280;9226;47.858;9.594;2023-07-31T03:15:36;95279.28;;;16.30;70.01
18201;BME280;9226;47.858;9.594;2023-07-31T03:18:01;95276.03;;;16.09;70.19
18201;BME280;9226;47.858;9.594;2023-07-31T03:20:27;95277.53;;;16.04;70.20
18201;BME280;9226;47.858;9.594;2023-07-31T03:22:52;95278.22;;;16.14;69.70
18201;BME280;9226;47.858;9.594;2023-07-31T03:25:17;95279.41;;;16.20;68.94
18201;BME280;9226;47.858;9.594;2023-07-31T03:27:43;95280.75;;;16.24;68.48
18201;BME280;9226;47.858;9.594;2023-07-31T03:30:08;95281.44;;;16.26;68.61
18201;BME280;9226;47.858;9.594;2023-07-31T03:32:34;95283.31;;;16.34;68.12
18201;BME280;9226;47.858;9.594;2023-07-31T03:34:59;95286.09;;;16.24;69.09
18201;BME280;9226;47.858;9.594;2023-07-31T03:37:25;95281.44;;;16.26;68.81
18201;BME280;9226;47.858;9.594;2023-07-31T03:39:52;95282.78;;;16.30;68.88
18201;BME280;9226;47.858;9.594;2023-07-31T03:42:18;95271.75;;;16.33;68.96
18201;BME280;9226;47.858;9.594;2023-07-31T03:44:43;95275.28;;;16.34;68.80
18201;BME280;9226;47.858;9.594;2023-07-31T03:47:09;95271.41;;;16.36;68.74
18201;BME280;9226;47.858;9.594;2023-07-31T03:49:34;95271.41;;;16.36;68.94
18201;BME280;9226;47.858;9.594;2023-07-31T03:52:00;95271.41;;;16.36;68.91
18201;BME280;9226;47.858;9.594;2023-07-31T03:54:25;95276.25;;;16.33;69.76
18201;BME280;9226;47.858;9.594;2023-07-31T03:56:50;95283.38;;;15.99;71.44
18201;BME280;9226;47.858;9.594;2023-07-31T03:59:16;95275.53;;;16.06;71.06
18201;BME280;9226;47.858;9.594;2023-07-31T04:01:41;95273.03;;;16.13;70.24
18201;BME280;9226;47.858;9.594;2023-07-31T04:04:07;95270.88;;;16.16;70.27
18201;BME280;9226;47.858;9.594;2023-07-31T04:06:32;95269.53;;;16.12;70.23
18201;BME280;9226;47.858;9.594;2023-07-31T04:08:57;95273.19;;;16.11;70.50
18201;BME280;9226;47.858;9.594;2023-07-31T04:11:23;95285.44;;;16.22;69.95
18201;BME280;9226;47.858;9.594;2023-07-31T04:13:49;95285.59;;;16.20;70.43
18201;BME280;9226;47.858;9.594;2023-07-31T04:16:14;95280.09;;;16.22;70.70
18201;BME280;9226;47.858;9.594;2023-07-31T04:18:39;95292.81;;;16.28;70.49
18201;BME280;9226;47.858;9.594;2023-07-31T04:21:05;95298.50;;;16.33;70.71
18201;BME280;9226;47.858;9.594;2023-07-31T04:23:30;95290.84;;;16.38;70.51
18201;BME280;9226;47.858;9.594;2023-07-31T04:25:56;95286.50;;;16.45;70.57
18201;BME280;9226;47.858;9.594;2023-07-31T04:28:22;95295.72;;;16.51;70.42
18201;BME280;9226;47.858;9.594;2023-07-31T04:30:47;95296.22;;;16.55;70.06
18201;BME280;9226;47.858;9.594;2023-07-31T04:33:13;95284.19;;;16.59;69.59
18201;BME280;9226;47.858;9.594;2023-07-31T04:35:38;95283.00;;;16.53;70.08
18201;BME280;9226;47.858;9.594;2023-07-31T04:38:05;95286.88;;;16.59;69.33
18201;BME280;9226;47.858;9.594;2023-07-31T04:40:31;95286.88;;;16.59;69.23
18201;BME280;9226;47.858;9.594;2023-07-31T04:42:56;95285.34;;;16.56;69.82
18201;BME280;9226;47.858;9.594;2023-07-31T04:45:21;95284.19;;;16.59;69.86
18201;BME280;9226;47.858;9.594;2023-07-31T04:47:47;95284.19;;;16.67;69.48
18201;BME280;9226;47.858;9.594;2023-07-31T04:50:12;95278.50;;;16.70;69.40
18201;BME280;9226;47.858;9.594;2023-07-31T04:52:38;95282.16;;;16.77;69.25
18201;BME280;9226;47.858;9.594;2023-07-31T04:55:03;95279.69;;;16.84;69.04
18201;BME280;9226;47.858;9.594;2023-07-31T04:57:29;95286.88;;;16.92;69.22
18201;BME280;9226;47.858;9.594;2023-07-31T04:59:54;95290.91;;;16.96;68.98
18201;BME280;9226;47.858;9.594;2023-07-31T05:02:20;95291.06;;;17.03;69.13
18201;BME280;9226;47.858;9.594;2023-07-31T05:04:46;95286.91;;;17.08;68.71
18201;BME280;9226;47.858;9.594;2023-07-31T05:07:11;95294.09;;;17.16;68.82
18201;BME280;9226;47.858;9.594;2023-07-31T05:09:37;95293.59;;;17.21;68.95
18201;BME280;9226;47.858;9.594;2023-07-31T05:12:05;95288.56;;;17.26;68.97
18201;BME280;9226;47.858;9.594;2023-07-31T05:14:30;95287.00;;;17.31;68.54
18201;BME280;9226;47.858;9.594;2023-07-31T05:16:56;95286.69;;;17.34;68.59
18201;BME280;9226;47.858;9.594;2023-07-31T05:19:21;95288.84;;;17.39;68.36
18201;BME280;9226;47.858;9.594;2023-07-31T05:21:47;95281.81;;;17.46;68.85
18201;BME280;9226;47.858;9.594;2023-07-31T05:24:12;95278.78;;;17.33;69.35
18201;BME280;9226;47.858;9.594;2023-07-31T05:26:37;95289.88;;;17.38;69.13
18201;BME280;9226;47.858;9.594;2023-07-31T05:29:03;95288.06;;;17.22;69.70
18201;BME280;9226;47.858;9.594;2023-07-31T05:31:28;95284.50;;;17.30;69.64
18201;BME280;9226;47.858;9.594;2023-07-31T05:33:54;95279.81;;;17.40;69.26
18201;BME280;9226;47.858;9.594;2023-07-31T05:36:19;95288.16;;;17.45;69.16
18201;BME280;9226;47.858;9.594;2023-07-31T05:38:45;95281.50;;;17.41;69.21
18201;BME280;9226;47.858;9.594;2023-07-31T05:41:13;95282.16;;;17.35;70.09
18201;BME280;9226;47.858;9.594;2023-07-31T05:43:39;95285.16;;;17.40;70.00
18201;BME280;9226;47.858;9.594;2023-07-31T05:46:04;95286.66;;;17.51;70.70
18201;BME280;9226;47.858;9.594;2023-07-31T05:48:31;95298.47;;;17.89;69.91
18201;BME280;9226;47.858;9.594;2023-07-31T05:50:57;95300.75;;;18.09;69.12
18201;BME280;9226;47.858;9.594;2023-07-31T05:53:23;95287.13;;;18.42;68.02
18201;BME280;9226;47.858;9.594;2023-07-31T05:55:48;95287.03;;;18.58;68.24
18201;BME280;9226;47.858;9.594;2023-07-31T05:58:14;95280.50;;;18.53;67.76
18201;BME280;9226;47.858;9.594;2023-07-31T06:00:39;95289.81;;;18.42;68.17
18201;BME280;9226;47.858;9.594;2023-07-31T06:03:06;95289.91;;;18.57;67.31
18201;BME280;9226;47.858;9.594;2023-07-31T06:05:31;95286.38;;;18.56;66.94
18201;BME280;9226;47.858;9.594;2023-07-31T06:07:57;95285.41;;;18.49;66.65
18201;BME280;9226;47.858;9.594;2023-07-31T06:10:22;95291.72;;;18.33;67.33
18201;BME280;9226;47.858;9.594;2023-07-31T06:12:48;95294.31;;;18.18;67.74
18201;BME280;9226;47.858;9.594;2023-07-31T06:15:13;95287.22;;;18.25;67.31
18201;BME280;9226;47.858;9.594;2023-07-31T06:17:38;95282.03;;;18.24;67.50
18201;BME280;9226;47.858;9.594;2023-07-31T06:20:06;95289.69;;;18.35;67.49
18201;BME280;9226;47.858;9.594;2023-07-31T06:22:32;95292.50;;;18.42;67.14
18201;BME280;9226;47.858;9.594;2023-07-31T06:24:57;95282.50;;;18.59;66.73
18201;BME280;9226;47.858;9.594;2023-07-31T06:27:23;95288.88;;;18.81;65.56
18201;BME280;9226;47.858;9.594;2023-07-31T06:29:48;95292.50;;;18.96;65.11
18201;BME280;9226;47.858;9.594;2023-07-31T06:32:14;95279.88;;;19.20;64.57
18201;BME280;9226;47.858;9.594;2023-07-31T06:34:39;95287.41;;;19.40;64.39
18201;BME280;9226;47.858;9.594;2023-07-31T06:37:05;95285.66;;;19.62;63.47
18201;BME280;9226;47.858;9.594;2023-07-31T06:39:31;95290.13;;;19.69;62.57
18201;BME280;9226;47.858;9.594;2023-07-31T06:41:56;95288.31;;;19.85;61.75
18201;BME280;9226;47.858;9.594;2023-07-31T06:44:21;95280.22;;;20.00;61.20
18201;BME280;9226;47.858;9.594;2023-07-31T06:46:47;95283.78;;;20.22;61.13
18201;BME280;9226;47.858;9.594;2023-07-31T06:49:12;95284.34;;;20.32;59.66
18201;BME280;9226;47.858;9.594;2023-07-31T06:51:40;95279.84;;;20.39;59.15
18201;BME280;9226;47.858;9.594;2023-07-31T06:54:05;95273.53;;;20.47;58.90
18201;BME280;9226;47.858;9.594;2023-07-31T06:56:31;95268.69;;;20.42;58.30
18201;BME280;9226;47.858;9.594;2023-07-31T06:58:56;95276.72;;;20.36;58.06
18201;BME280;9226;47.858;9.594;2023-07-31T07:01:22;95270.41;;;20.29;57.80
18201;BME280;9226;47.858;9.594;2023-07-31T07:03:47;95276.84;;;20.13;57.83
18201;BME280;9226;47.858;9.594;2023-07-31T07:06:16;95281.47;;;20.19;57.58
18201;BME280;9226;47.858;9.594;2023-07-31T07:08:41;95274.81;;;20.15;57.52
18201;BME280;9226;47.858;9.594;2023-07-31T07:11:07;95289.50;;;19.97;57.58
18201;BME280;9226;47.858;9.594;2023-07-31T07:13:33;95288.47;;;20.13;58.23
18201;BME280;9226;47.858;9.594;2023-07-31T07:15:59;95284.44;;;20.24;58.42
18201;BME280;9226;47.858;9.594;2023-07-31T07:18:24;95287.78;;;20.26;57.58
18201;BME280;9226;47.858;9.594;2023-07-31T07:20:51;95283.97;;;20.35;57.64
18201;BME280;9226;47.858;9.594;2023-07-31T07:23:18;95277.03;;;20.48;57.12
18201;BME280;9226;47.858;9.594;2023-07-31T07:25:44;95269.34;;;20.45;56.32
18201;BME280;9226;47.858;9.594;2023-07-31T07:28:09;95269.25;;;20.53;55.92
18201;BME280;9226;47.858;9.594;2023-07-31T07:30:35;95254.28;;;20.50;56.46
18201;BME280;9226;47.858;9.594;2023-07-31T07:33:00;95252.41;;;20.51;56.33
18201;BME280;9226;47.858;9.594;2023-07-31T07:35:26;95249.13;;;20.55;56.24
18201;BME280;9226;47.858;9.594;2023-07-31T07:37:51;95253.00;;;20.83;56.38
18201;BME280;9226;47.858;9.594;2023-07-31T07:40:17;95258.94;;;21.00;56.22
18201;BME280;9226;47.858;9.594;2023-07-31T07:42:42;95260.97;;;21.19;55.82
18201;BME280;9226;47.858;9.594;2023-07-31T07:45:08;95265.78;;;21.24;55.15
18201;BME280;9226;47.858;9.594;2023-07-31T07:47:33;95265.91;;;21.15;55.17
18201;BME280;9226;47.858;9.594;2023-07-31T07:49:59;95268.28;;;21.25;55.45
18201;BME280;9226;47.858;9.594;2023-07-31T07:52:24;95272.09;;;21.38;55.69
18201;BME280;9226;47.858;9.594;2023-07-31T07:54:50;95274.09;;;21.50;55.80
18201;BME280;9226;47.858;9.594;2023-07-31T07:57:15;95273.09;;;21.58;54.09
18201;BME280;9226;47.858;9.594;2023-07-31T07:59:41;95264.91;;;21.45;53.83
18201;BME280;9226;47.858;9.594;2023-07-31T08:02:06;95267.16;;;21.41;53.04
18201;BME280;9226;47.858;9.594;2023-07-31T08:04:32;95269.00;;;21.41;54.26
18201;BME280;9226;47.858;9.594;2023-07-31T08:06:57;95264.59;;;21.61;54.08
18201;BME280;9226;47.858;9.594;2023-07-31T08:09:22;95266.47;;;21.96;53.50
18201;BME280;9226;47.858;9.594;2023-07-31T08:11:48;95270.53;;;22.75;53.30
18201;BME280;9226;47.858;9.594;2023-07-31T08:14:13;95264.56;;;23.40;51.31
18201;BME280;9226;47.858;9.594;2023-07-31T08:16:39;95255.94;;;24.03;51.35
18201;BME280;9226;47.858;9.594;2023-07-31T08:19:04;95258.78;;;24.28;47.80
18201;BME280;9226;47.858;9.594;2023-07-31T08:21:29;95246.56;;;24.58;47.32
18201;BME280;9226;47.858;9.594;2023-07-31T08:23:55;95250.38;;;25.14;47.23
18201;BME280;9226;47.858;9.594;2023-07-31T08:26:21;95244.69;;;25.47;44.99
18201;BME280;9226;47.858;9.594;2023-07-31T08:28:46;95244.59;;;25.35;44.38
18201;BME280;9226;47.858;9.594;2023-07-31T08:31:12;95250.72;;;25.24;44.65
18201;BME280;9226;47.858;9.594;2023-07-31T08:33:38;95237.41;;;25.16;43.76
18201;BME280;9226;47.858;9.594;2023-07-31T08:36:04;95249.59;;;25.38;44.29
18201;BME280;9226;47.858;9.594;2023-07-31T08:38:30;95241.00;;;25.60;43.06
18201;BME280;9226;47.858;9.594;2023-07-31T08:40:58;95250.88;;;25.98;42.64
18201;BME280;9226;47.858;9.594;2023-07-31T08:43:27;95251.91;;;26.22;41.50
18201;BME280;9226;47.858;9.594;2023-07-31T08:45:52;95263.34;;;26.43;42.18
18201;BME280;9226;47.858;9.594;2023-07-31T08:48:20;95246.63;;;26.58;41.46
18201;BME280;9226;47.858;9.594;2023-07-31T08:50:46;95254.00;;;26.87;40.96
18201;BME280;9226;47.858;9.594;2023-07-31T08:53:11;95249.09;;;26.78;40.33
18201;BME280;9226;47.858;9.594;2023-07-31T08:55:38;95232.72;;;27.08;38.82
18201;BME280;9226;47.858;9.594;2023-07-31T08:58:04;95232.66;;;27.26;38.95
18201;BME280;9226;47.858;9.594;2023-07-31T09:00:32;95230.22;;;27.60;38.30
18201;BME280;9226;47.858;9.594;2023-07-31T09:03:01;95220.28;;;27.66;38.23
18201;BME280;9226;47.858;9.594;2023-07-31T09:05:29;95211.59;;;27.93;38.86
18201;BME280;9226;47.858;9.594;2023-07-31T09:07:56;95204.66;;;28.26;37.67
18201;BME280;9226;47.858;9.594;2023-07-31T09:10:21;95204.47;;;28.04;37.65
18201;BME280;9226;47.858;9.594;2023-07-31T09:12:48;95209.44;;;28.07;37.24
18201;BME280;9226;47.858;9.594;2023-07-31T09:15:14;95198.56;;;27.95;36.64
18201;BME280;9226;47.858;9.594;2023-07-31T09:17:40;95207.91;;;28.11;37.37
18201;BME280;9226;47.858;9.594;2023-07-31T09:20:19;95207.03;;;28.22;36.41
18201;BME280;9226;47.858;9.594;2023-07-31T09:22:46;95205.19;;;28.40;36.44
18201;BME280;9226;47.858;9.594;2023-07-31T09:25:17;95200.34;;;28.42;36.22
18201;BME280;9226;47.858;9.594;2023-07-31T09:27:54;95201.50;;;28.58;35.86
18201;BME280;9226;47.858;9.594;2023-07-31T09:30:20;95200.03;;;28.26;36.72
18201;BME280;9226;47.858;9.594;2023-07-31T09:32:48;95204.25;;;28.58;36.10
18201;BME280;9226;47.858;9.594;2023-07-31T09:37:55;95187.13;;;28.62;35.62
18201;BME280;9226;47.858;9.594;2023-07-31T09:40:31;95186.78;;;28.59;35.05
18201;BME280;9226;47.858;9.594;2023-07-31T09:43:04;95197.91;;;28.86;34.90
18201;BME280;9226;47.858;9.594;2023-07-31T09:45:34;95195.38;;;28.96;35.46
18201;BME280;9226;47.858;9.594;2023-07-31T09:48:01;95197.44;;;29.06;35.10
18201;BME280;9226;47.858;9.594;2023-07-31T09:50:27;95201.75;;;29.02;35.18
18201;BME280;9226;47.858;9.594;2023-07-31T09:52:53;95200.59;;;29.15;35.27
18201;BME280;9226;47.858;9.594;2023-07-31T09:55:19;95201.16;;;28.83;34.93
18201;BME280;9226;47.858;9.594;2023-07-31T09:57:47;95196.44;;;28.95;35.09
18201;BME280;9226;47.858;9.594;2023-07-31T10:00:13;95193.81;;;29.00;35.28
18201;BME280;9226;47.858;9.594;2023-07-31T10:02:40;95185.84;;;28.41;34.43
18201;BME280;9226;47.858;9.594;2023-07-31T10:05:06;95188.00;;;28.39;34.88
18201;BME280;9226;47.858;9.594;2023-07-31T10:07:37;95175.41;;;28.21;34.73
18201;BME280;9226;47.858;9.594;2023-07-31T10:10:05;95171.50;;;27.93;35.33
18201;BME280;9226;47.858;9.594;2023-07-31T10:12:33;95165.28;;;27.57;35.42
18201;BME280;9226;47.858;9.594;2023-07-31T10:15:00;95167.91;;;27.52;36.03
18201;BME280;9226;47.858;9.594;2023-07-31T10:17:26;95186.84;;;27.59;36.66
18201;BME280;9226;47.858;9.594;2023-07-31T10:19:53;95179.25;;;27.73;36.70
18201;BME280;9226;47.858;9.594;2023-07-31T10:22:20;95164.78;;;27.84;37.04
18201;BME280;9226;47.858;9.594;2023-07-31T10:24:46;95168.06;;;27.86;35.74
18201;BME280;9226;47.858;9.594;2023-07-31T10:27:12;95151.50;;;28.00;36.35
18201;BME280;9226;47.858;9.594;2023-07-31T10:29:43;95149.97;;;28.32;36.05
18201;BME280;9226;47.858;9.594;2023-07-31T10:32:09;95144.34;;;28.39;36.12
18201;BME280;9226;47.858;9.594;2023-07-31T10:34:38;95137.63;;;28.59;36.18
18201;BME280;9226;47.858;9.594;2023-07-31T10:37:26;95141.22;;;28.59;35.71
18201;BME280;9226;47.858;9.594;2023-07-31T10:45:05;95120.44;;;28.58;34.97
18201;BME280;9226;47.858;9.594;2023-07-31T10:47:37;95116.38;;;28.32;34.79
18201;BME280;9226;47.858;9.594;2023-07-31T10:52:45;95099.25;;;28.65;34.80
18201;BME280;9226;47.858;9.594;2023-07-31T10:55:33;95097.72;;;28.86;34.45
18201;BME280;9226;47.858;9.594;2023-07-31T10:58:12;95080.97;;;29.17;34.72
18201;BME280;9226;47.858;9.594;2023-07-31T11:00:42;95093.97;;;29.10;34.16
18201;BME280;9226;47.858;9.594;2023-07-31T11:03:10;95085.56;;;28.94;33.87
18201;BME280;9226;47.858;9.594;2023-07-31T11:06:07;95086.72;;;28.81;34.20
18201;BME280;9226;47.858;9.594;2023-07-31T11:08:35;95079.41;;;28.24;34.57
18201;BME280;9226;47.858;9.594;2023-07-31T11:13:48;95069.13;;;27.97;34.90
18201;BME280;9226;47.858;9.594;2023-07-31T11:16:24;95064.91;;;28.07;35.25
18201;BME280;9226;47.858;9.594;2023-07-31T11:18:50;95065.47;;;27.80;35.17
18201;BME280;9226;47.858;9.594;2023-07-31T11:21:25;95068.03;;;27.22;34.60
18201;BME280;9226;47.858;9.594;2023-07-31T11:23:53;95058.94;;;27.05;35.93
18201;BME280;9226;47.858;9.594;2023-07-31T11:26:19;95059.19;;;26.92;36.18
18201;BME280;9226;47.858;9.594;2023-07-31T11:28:49;95061.84;;;26.44;37.51
18201;BME280;9226;47.858;9.594;2023-07-31T11:31:16;95054.50;;;26.57;36.88
18201;BME280;9226;47.858;9.594;2023-07-31T11:33:41;95061.44;;;26.29;37.96
18201;BME280;9226;47.858;9.594;2023-07-31T11:36:14;95065.78;;;26.18;38.50
18201;BME280;9226;47.858;9.594;2023-07-31T11:38:40;95066.41;;;26.32;38.17
18201;BME280;9226;47.858;9.594;2023-07-31T11:41:06;95069.25;;;26.37;38.76
18201;BME280;9226;47.858;9.594;2023-07-31T11:43:32;95076.28;;;26.14;38.22
18201;BME280;9226;47.858;9.594;2023-07-31T11:45:59;95070.06;;;26.26;38.81
18201;BME280;9226;47.858;9.594;2023-07-31T11:48:26;95069.25;;;26.37;39.09
18201;BME280;9226;47.858;9.594;2023-07-31T11:50:57;95064.34;;;26.58;39.12
18201;BME280;9226;47.858;9.594;2023-07-31T11:53:36;95048.31;;;26.68;37.67
18201;BME280;9226;47.858;9.594;2023-07-31T11:56:03;95056.06;;;26.64;37.79
18201;BME280;9226;47.858;9.594;2023-07-31T11:58:31;95055.00;;;26.53;37.37
18201;BME280;9226;47.858;9.594;2023-07-31T12:00:58;95065.31;;;26.75;38.30
18201;BME280;9226;47.858;9.594;2023-07-31T12:03:24;95052.19;;;26.96;37.93
18201;BME280;9226;47.858;9.594;2023-07-31T12:05:49;95059.78;;;27.17;37.96
18201;BME280;9226;47.858;9.594;2023-07-31T12:08:15;95066.75;;;27.25;36.81
18201;BME280;9226;47.858;9.594;2023-07-31T12:10:41;95057.66;;;27.07;36.69
18201;BME280;9226;47.858;9.594;2023-07-31T12:13:11;95058.84;;;27.00;36.33
18201;BME280;9226;47.858;9.594;2023-07-31T12:15:43;95049.09;;;27.04;36.51
18201;BME280;9226;47.858;9.594;2023-07-31T12:18:18;95049.38;;;26.90;36.81
18201;BME280;9226;47.858;9.594;2023-07-31T12:23:19;95042.16;;;26.84;36.93
18201;BME280;9226;47.858;9.594;2023-07-31T12:25:44;95030.88;;;26.69;37.19
18201;BME280;9226;47.858;9.594;2023-07-31T12:28:10;95021.56;;;26.65;37.04
18201;BME280;9226;47.858;9.594;2023-07-31T12:30:40;95016.41;;;26.57;37.83
18201;BME280;9226;47.858;9.594;2023-07-31T12:33:07;95020.63;;;26.71;38.34
18201;BME280;9226;47.858;9.594;2023-07-31T12:35:39;95009.72;;;26.71;37.85
18201;BME280;9226;47.858;9.594;2023-07-31T12:38:05;95001.28;;;26.61;37.56
18201;BME280;9226;47.858;9.594;2023-07-31T12:40:31;95001.09;;;26.74;38.71
18201;BME280;9226;47.858;9.594;2023-07-31T12:42:57;95004.03;;;26.84;38.60
18201;BME280;9226;47.858;9.594;2023-07-31T12:45:22;94995.63;;;26.86;38.45
18201;BME280;9226;47.858;9.594;2023-07-31T12:47:48;94987.22;;;26.87;38.11
18201;BME280;9226;47.858;9.594;2023-07-31T12:50:14;94989.81;;;27.06;38.24
18201;BME280;9226;47.858;9.594;2023-07-31T12:52:39;94972.28;;;27.14;37.64
18201;BME280;9226;47.858;9.594;2023-07-31T12:55:05;94977.84;;;27.19;38.58
18201;BME280;9226;47.858;9.594;2023-07-31T12:57:30;94980.53;;;27.31;38.79
18201;BME280;9226;47.858;9.594;2023-07-31T12:59:55;94979.94;;;27.29;37.78
18201;BME280;9226;47.858;9.594;2023-07-31T13:02:21;94971.38;;;27.49;38.03
18201;BME280;9226;47.858;9.594;2023-07-31T13:04:46;94958.97;;;27.70;37.71
18201;BME280;9226;47.858;9.594;2023-07-31T13:07:12;94959.91;;;27.75;37.05
18201;BME280;9226;47.858;9.594;2023-07-31T13:09:37;94956.72;;;27.95;36.99
18201;BME280;9226;47.858;9.594;2023-07-31T13:12:03;94950.38;;;28.07;36.49
18201;BME280;9226;47.858;9.594;2023-07-31T13:14:28;94940.81;;;28.04;36.14
18201;BME280;9226;47.858;9.594;2023-07-31T13:16:54;94947.50;;;27.96;35.89
18201;BME280;9226;47.858;9.594;2023-07-31T13:19:19;94941.72;;;27.81;35.52
18201;BME280;9226;47.858;9.594;2023-07-31T13:21:44;94936.97;;;27.59;36.32
18201;BME280;9226;47.858;9.594;2023-07-31T13:24:10;94938.69;;;27.49;36.28
18201;BME280;9226;47.858;9.594;2023-07-31T13:26:36;94945.00;;;27.25;36.46
18201;BME280;9226;47.858;9.594;2023-07-31T13:29:02;94937.09;;;27.24;36.64